createdAt,value
2017-12-03T00:00:52.655Z,0.20
2017-12-03T00:03:20.191Z,0.20
2017-12-03T00:05:47.760Z,0.20
2017-12-03T00:08:15.312Z,0.20
2017-12-03T00:10:43.633Z,0.20
2017-12-03T00:13:11.161Z,0.20
2017-12-03T00:15:38.689Z,0.30
2017-12-03T00:18:06.232Z,0.30
2017-12-03T00:20:33.781Z,0.30
2017-12-03T00:23:01.427Z,0.30
2017-12-03T00:25:28.991Z,0.40
2017-12-03T00:27:56.535Z,0.40
2017-12-03T00:30:24.065Z,0.40
2017-12-03T00:32:52.391Z,0.30
2017-12-03T00:35:19.938Z,0.30
2017-12-03T00:37:47.469Z,0.40
2017-12-03T00:40:15.795Z,0.40
2017-12-03T00:42:43.323Z,0.40
2017-12-03T00:45:11.626Z,0.40
2017-12-03T00:47:39.172Z,0.40
2017-12-03T00:50:06.692Z,0.40
2017-12-03T00:52:34.220Z,0.50
2017-12-03T00:55:01.763Z,0.40
2017-12-03T00:57:29.302Z,0.40
2017-12-03T00:59:57.619Z,0.40
2017-12-03T01:02:25.187Z,0.30
2017-12-03T01:04:52.736Z,0.40
2017-12-03T01:07:20.284Z,0.50
2017-12-03T01:09:47.822Z,0.50
2017-12-03T01:12:16.160Z,0.40
2017-12-03T01:14:43.686Z,0.40
2017-12-03T01:17:11.231Z,0.50
2017-12-03T01:19:39.541Z,0.50
2017-12-03T01:22:07.122Z,0.40
2017-12-03T01:24:34.680Z,0.50
2017-12-03T01:27:02.231Z,0.50
2017-12-03T01:29:29.777Z,0.40
2017-12-03T01:31:57.349Z,0.50
2017-12-03T01:34:24.909Z,0.50
2017-12-03T01:36:52.452Z,0.50
2017-12-03T01:39:20.016Z,0.50
2017-12-03T01:41:47.558Z,0.50
2017-12-03T01:44:15.898Z,0.50
2017-12-03T01:46:43.443Z,0.50
2017-12-03T01:49:10.964Z,0.50
2017-12-03T01:51:39.292Z,0.50
2017-12-03T01:54:06.821Z,0.50
2017-12-03T01:56:34.379Z,0.50
2017-12-03T01:59:01.956Z,0.60
2017-12-03T02:01:29.501Z,0.50
2017-12-03T02:03:57.029Z,0.60
2017-12-03T02:06:24.589Z,0.50
2017-12-03T02:08:52.139Z,0.50
2017-12-03T02:11:19.694Z,0.50
2017-12-03T02:13:47.255Z,0.50
2017-12-03T02:16:15.618Z,0.50
2017-12-03T02:18:43.121Z,0.50
2017-12-03T02:21:10.687Z,0.50
2017-12-03T02:23:38.266Z,0.50
2017-12-03T02:26:05.809Z,0.50
2017-12-03T02:28:33.362Z,0.60
2017-12-03T02:31:00.889Z,0.60
2017-12-03T02:33:28.426Z,0.60
2017-12-03T02:35:55.991Z,0.60
2017-12-03T02:38:23.535Z,0.60
2017-12-03T02:40:51.829Z,0.70
2017-12-03T02:43:19.408Z,0.60
2017-12-03T02:45:46.956Z,0.60
2017-12-03T02:48:14.499Z,0.70
2017-12-03T02:50:42.836Z,0.70
2017-12-03T02:53:10.370Z,0.70
2017-12-03T02:55:37.913Z,0.70
2017-12-03T02:58:05.472Z,0.70
2017-12-03T03:00:32.999Z,0.70
2017-12-03T03:03:00.541Z,0.70
2017-12-03T03:05:28.877Z,0.70
2017-12-03T03:07:56.528Z,0.70
2017-12-03T03:10:24.833Z,0.70
2017-12-03T03:12:52.383Z,0.60
2017-12-03T03:15:19.913Z,0.60
2017-12-03T03:17:48.245Z,0.70
2017-12-03T03:20:15.788Z,0.60
2017-12-03T03:22:43.354Z,0.60
2017-12-03T03:25:10.898Z,0.50
2017-12-03T03:27:39.221Z,0.50
2017-12-03T03:30:06.752Z,0.50
2017-12-03T03:32:34.318Z,0.50
2017-12-03T03:35:01.860Z,0.50
2017-12-03T03:37:30.160Z,0.40
2017-12-03T03:39:57.710Z,0.40
2017-12-03T03:42:25.233Z,0.40
2017-12-03T03:44:52.777Z,0.40
2017-12-03T03:47:20.329Z,0.40
2017-12-03T03:49:47.875Z,0.40
2017-12-03T03:52:15.424Z,0.40
2017-12-03T03:54:42.987Z,0.40
2017-12-03T03:57:10.518Z,0.40
2017-12-03T03:59:38.817Z,0.30
2017-12-03T04:02:06.370Z,0.30
2017-12-03T04:04:34.675Z,0.40
2017-12-03T04:07:02.224Z,0.30
2017-12-03T04:09:29.779Z,0.40
2017-12-03T04:11:57.322Z,0.40
2017-12-03T04:14:25.651Z,0.40
2017-12-03T04:16:53.177Z,0.40
2017-12-03T04:19:21.509Z,0.40
2017-12-03T04:21:49.036Z,0.40
2017-12-03T04:24:16.591Z,0.40
2017-12-03T04:26:44.166Z,0.40
2017-12-03T04:29:11.696Z,0.30
2017-12-03T04:31:40.012Z,0.40
2017-12-03T04:34:07.581Z,0.40
2017-12-03T04:36:35.113Z,0.40
2017-12-03T04:39:02.669Z,0.50
2017-12-03T04:41:30.239Z,0.40
2017-12-03T04:43:57.788Z,0.40
2017-12-03T04:46:26.120Z,0.40
2017-12-03T04:48:53.675Z,0.40
2017-12-03T04:51:21.244Z,0.40
2017-12-03T04:53:48.786Z,0.40
2017-12-03T04:56:16.351Z,0.40
2017-12-03T04:58:43.902Z,0.50
2017-12-03T05:01:11.499Z,0.40
2017-12-03T05:03:39.037Z,0.40
2017-12-03T05:06:06.570Z,0.40
2017-12-03T05:08:34.124Z,0.40
2017-12-03T05:11:01.677Z,0.40
2017-12-03T05:13:29.982Z,0.40
2017-12-03T05:15:57.547Z,0.40
2017-12-03T05:18:25.096Z,0.40
2017-12-03T05:20:52.644Z,0.30
2017-12-03T05:23:20.221Z,0.40
2017-12-03T05:25:47.767Z,0.40
2017-12-03T05:28:16.092Z,0.50
2017-12-03T05:30:43.671Z,0.40
2017-12-03T05:33:11.213Z,0.40
2017-12-03T05:35:38.787Z,0.40
2017-12-03T05:38:06.318Z,0.40
2017-12-03T05:40:33.873Z,0.40
2017-12-03T05:43:01.403Z,0.30
2017-12-03T05:45:29.741Z,0.30
2017-12-03T05:47:57.272Z,0.30
2017-12-03T05:50:25.590Z,0.30
2017-12-03T05:52:53.143Z,0.30
2017-12-03T05:55:20.670Z,0.30
2017-12-03T05:57:48.229Z,0.30
2017-12-03T06:00:16.583Z,0.30
2017-12-03T06:02:44.912Z,0.30
2017-12-03T06:05:12.510Z,0.40
2017-12-03T06:07:40.050Z,0.40
2017-12-03T06:10:07.627Z,0.40
2017-12-03T06:12:35.161Z,0.40
2017-12-03T06:15:02.721Z,0.40
2017-12-03T06:17:30.253Z,0.40
2017-12-03T06:19:58.572Z,0.40
2017-12-03T06:22:26.906Z,0.40
2017-12-03T06:24:55.231Z,0.40
2017-12-03T06:27:22.768Z,0.40
2017-12-03T06:29:50.330Z,0.40
2017-12-03T06:32:17.917Z,0.40
2017-12-03T06:34:45.466Z,0.30
2017-12-03T06:37:13.039Z,0.40
2017-12-03T06:39:40.573Z,0.30
2017-12-03T06:42:08.117Z,0.30
2017-12-03T06:44:36.450Z,0.30
2017-12-03T06:47:04.741Z,0.30
2017-12-03T06:49:32.280Z,0.30
2017-12-03T06:51:59.863Z,0.30
2017-12-03T06:54:27.389Z,0.30
2017-12-03T06:56:54.975Z,0.30
2017-12-03T06:59:22.564Z,0.20
2017-12-03T07:01:50.158Z,0.20
2017-12-03T07:04:17.695Z,0.20
2017-12-03T07:06:46.012Z,0.30
2017-12-03T07:09:13.593Z,0.20
2017-12-03T07:11:41.121Z,0.30
2017-12-03T07:14:08.661Z,0.20
2017-12-03T07:16:36.985Z,0.30
2017-12-03T07:19:04.520Z,0.30
2017-12-03T07:21:32.825Z,0.30
2017-12-03T07:24:00.397Z,0.20
2017-12-03T07:26:28.727Z,0.30
2017-12-03T07:28:57.030Z,0.20
2017-12-03T07:31:24.610Z,0.20
2017-12-03T07:33:52.157Z,0.20
2017-12-03T07:36:19.770Z,0.30
2017-12-03T07:38:47.306Z,0.30
2017-12-03T07:41:14.895Z,0.30
2017-12-03T07:43:42.416Z,0.30
2017-12-03T07:46:09.985Z,0.30
2017-12-03T07:48:37.529Z,0.40
2017-12-03T07:51:05.072Z,0.40
2017-12-03T07:53:33.393Z,0.40
2017-12-03T07:56:00.916Z,0.30
2017-12-03T07:58:28.470Z,0.30
2017-12-03T08:00:56.760Z,0.30
2017-12-03T08:03:24.294Z,0.30
2017-12-03T08:05:51.850Z,0.30
2017-12-03T08:08:19.390Z,0.30
2017-12-03T08:10:46.930Z,0.40
2017-12-03T08:13:14.594Z,0.30
2017-12-03T08:15:42.174Z,0.40
2017-12-03T08:18:09.725Z,0.30
2017-12-03T08:20:37.257Z,0.30
2017-12-03T08:23:04.807Z,0.30
2017-12-03T08:25:33.101Z,0.40
2017-12-03T08:28:00.652Z,0.40
2017-12-03T08:30:28.987Z,0.40
2017-12-03T08:32:56.546Z,0.40
2017-12-03T08:35:24.110Z,0.40
2017-12-03T08:37:51.637Z,0.40
2017-12-03T08:40:19.189Z,0.50
2017-12-03T08:42:46.721Z,0.50
2017-12-03T08:45:15.042Z,0.60
2017-12-03T08:47:42.621Z,0.60
2017-12-03T08:50:10.168Z,0.60
2017-12-03T08:52:37.706Z,0.70
2017-12-03T08:55:05.265Z,0.70
2017-12-03T08:57:32.814Z,0.60
2017-12-03T09:00:01.109Z,0.60
2017-12-03T09:02:28.665Z,0.50
2017-12-03T09:04:56.964Z,0.60
2017-12-03T09:07:24.500Z,0.50
2017-12-03T09:09:52.833Z,0.60
2017-12-03T09:12:20.374Z,0.60
2017-12-03T09:14:47.932Z,0.60
2017-12-03T09:17:15.474Z,0.60
2017-12-03T09:19:42.998Z,0.60
2017-12-03T09:22:10.601Z,0.60
2017-12-03T09:24:38.147Z,0.70
2017-12-03T09:27:06.437Z,0.60
2017-12-03T09:29:33.980Z,0.60
2017-12-03T09:32:02.300Z,0.60
2017-12-03T09:34:29.855Z,0.60
2017-12-03T09:36:57.429Z,0.60
2017-12-03T09:39:24.990Z,0.70
2017-12-03T09:41:52.541Z,0.60
2017-12-03T09:44:20.065Z,0.70
2017-12-03T09:46:48.419Z,0.70
2017-12-03T09:49:15.967Z,0.70
2017-12-03T09:51:43.538Z,0.70
2017-12-03T09:54:11.093Z,0.70
2017-12-03T09:56:38.620Z,0.60
2017-12-03T09:59:06.194Z,0.70
2017-12-03T10:01:33.768Z,0.70
2017-12-03T10:04:01.322Z,0.70
2017-12-03T10:06:28.909Z,0.70
2017-12-03T10:08:56.461Z,0.70
2017-12-03T10:11:24.000Z,0.80
2017-12-03T10:13:51.557Z,0.70
2017-12-03T10:16:19.133Z,0.70
2017-12-03T10:18:46.706Z,0.70
2017-12-03T10:21:14.252Z,0.70
2017-12-03T10:23:41.812Z,0.80
2017-12-03T10:26:09.368Z,0.80
2017-12-03T10:28:36.909Z,0.80
2017-12-03T10:31:04.706Z,0.70
2017-12-03T10:33:32.296Z,0.70
2017-12-03T10:35:59.850Z,0.70
2017-12-03T10:38:27.400Z,0.70
2017-12-03T10:40:54.944Z,0.70
2017-12-03T10:43:22.515Z,0.70
2017-12-03T10:45:50.049Z,0.70
2017-12-03T10:48:17.604Z,0.70
2017-12-03T10:50:45.935Z,0.70
2017-12-03T10:53:13.472Z,0.70
2017-12-03T10:55:41.053Z,0.80
2017-12-03T10:58:08.610Z,0.70
2017-12-03T11:00:36.169Z,0.80
2017-12-03T11:03:04.440Z,0.80
2017-12-03T11:05:31.987Z,0.80
2017-12-03T11:07:59.567Z,0.80
2017-12-03T11:10:27.101Z,0.90
2017-12-03T11:12:54.633Z,0.90
2017-12-03T11:15:22.204Z,0.90
2017-12-03T11:17:50.520Z,0.90
2017-12-03T11:20:18.079Z,0.90
2017-12-03T11:22:45.611Z,0.90
2017-12-03T11:25:13.908Z,0.90
2017-12-03T11:27:41.471Z,0.90
2017-12-03T11:30:09.019Z,0.80
2017-12-03T11:32:37.361Z,0.90
2017-12-03T11:35:04.978Z,0.90
2017-12-03T11:37:32.519Z,0.90
2017-12-03T11:40:00.837Z,0.90
2017-12-03T11:42:28.384Z,0.90
2017-12-03T11:44:55.957Z,0.90
2017-12-03T11:47:23.503Z,0.90
2017-12-03T11:49:51.030Z,0.90
2017-12-03T11:52:19.340Z,1.00
2017-12-03T11:54:46.890Z,1.00
2017-12-03T11:57:15.223Z,0.90
2017-12-03T11:59:42.865Z,0.90
2017-12-03T12:02:10.427Z,1.00
2017-12-03T12:04:37.953Z,1.00
2017-12-03T12:07:06.300Z,1.10
2017-12-03T12:09:33.829Z,1.10
2017-12-03T12:12:01.357Z,1.10
2017-12-03T12:14:29.674Z,1.10
2017-12-03T12:16:57.196Z,1.10
2017-12-03T12:19:25.543Z,1.10
2017-12-03T12:21:53.074Z,1.10
2017-12-03T12:24:20.615Z,1.10
2017-12-03T12:26:48.159Z,1.10
2017-12-03T12:29:16.457Z,1.20
2017-12-03T12:31:44.035Z,1.20
2017-12-03T12:34:11.583Z,1.20
2017-12-03T12:36:39.127Z,1.20
2017-12-03T12:39:07.446Z,1.20
2017-12-03T12:41:34.987Z,1.20
2017-12-03T12:44:02.545Z,1.30
2017-12-03T12:46:30.091Z,1.30
2017-12-03T12:48:58.408Z,1.30
2017-12-03T12:51:25.974Z,1.30
2017-12-03T12:53:53.506Z,1.30
2017-12-03T12:56:21.167Z,1.30
2017-12-03T12:58:48.719Z,1.30
2017-12-03T13:01:17.082Z,1.40
2017-12-03T13:03:45.393Z,1.30
2017-12-03T13:06:12.940Z,1.30
2017-12-03T13:08:41.272Z,1.30
2017-12-03T13:11:08.797Z,1.30
2017-12-03T13:13:36.414Z,1.30
2017-12-03T13:16:03.991Z,1.30
2017-12-03T13:18:32.815Z,1.30
2017-12-03T13:21:00.383Z,1.30
2017-12-03T13:23:27.920Z,1.30
2017-12-03T13:25:56.241Z,1.40
2017-12-03T13:28:23.788Z,1.40
2017-12-03T13:30:51.336Z,1.40
2017-12-03T13:33:18.971Z,1.40
2017-12-03T13:35:47.288Z,1.40
2017-12-03T13:38:14.861Z,1.30
2017-12-03T13:40:42.413Z,1.30
2017-12-03T13:43:10.047Z,1.30
2017-12-03T13:45:38.364Z,1.40
2017-12-03T13:48:05.939Z,1.40
2017-12-03T13:50:33.474Z,1.30
2017-12-03T13:53:01.017Z,1.30
2017-12-03T13:55:28.562Z,1.30
2017-12-03T13:57:56.878Z,1.40
2017-12-03T14:00:24.516Z,1.40
2017-12-03T14:02:52.841Z,1.40
2017-12-03T14:05:20.446Z,1.40
2017-12-03T14:07:48.778Z,1.40
2017-12-03T14:10:16.302Z,1.40
2017-12-03T14:12:44.624Z,1.40
2017-12-03T14:15:12.229Z,1.40
2017-12-03T14:17:40.551Z,1.50
2017-12-03T14:20:08.102Z,1.50
2017-12-03T14:22:35.633Z,1.40
2017-12-03T14:25:03.954Z,1.50
2017-12-03T14:27:31.499Z,1.50
2017-12-03T14:29:59.072Z,1.60
2017-12-03T14:32:26.611Z,1.60
2017-12-03T14:34:54.959Z,1.50
2017-12-03T14:37:22.502Z,1.50
2017-12-03T14:39:50.053Z,1.50
2017-12-03T14:42:17.610Z,1.50
2017-12-03T14:44:45.156Z,1.60
2017-12-03T14:47:12.753Z,1.60
2017-12-03T14:49:40.278Z,1.60
2017-12-03T14:52:07.827Z,1.60
2017-12-03T14:54:35.395Z,1.60
2017-12-03T14:57:02.920Z,1.60
2017-12-03T14:59:30.485Z,1.60
2017-12-03T15:01:58.789Z,1.60
2017-12-03T15:04:27.088Z,1.60
2017-12-03T15:06:55.401Z,1.60
2017-12-03T15:09:22.964Z,1.60
2017-12-03T15:11:50.522Z,1.60
2017-12-03T15:14:18.215Z,1.60
2017-12-03T15:16:45.753Z,1.60
2017-12-03T15:19:13.307Z,1.60
2017-12-03T15:21:40.874Z,1.60
2017-12-03T15:24:08.434Z,1.60
2017-12-03T15:26:36.005Z,1.70
2017-12-03T15:29:04.383Z,1.60
2017-12-03T15:31:31.927Z,1.70
2017-12-03T15:33:59.500Z,1.60
2017-12-03T15:36:27.030Z,1.70
2017-12-03T15:38:54.595Z,1.60
2017-12-03T15:41:22.115Z,1.60
2017-12-03T15:43:50.428Z,1.70
2017-12-03T15:46:18.000Z,1.60
2017-12-03T15:48:45.575Z,1.70
2017-12-03T15:51:13.134Z,1.70
2017-12-03T15:53:40.665Z,1.70
2017-12-03T15:56:08.217Z,1.80
2017-12-03T15:58:36.530Z,1.70
2017-12-03T16:01:04.103Z,1.70
2017-12-03T16:03:31.651Z,1.70
2017-12-03T16:05:59.238Z,1.70
2017-12-03T16:08:26.772Z,1.70
2017-12-03T16:10:54.325Z,1.70
2017-12-03T16:13:21.859Z,1.70
2017-12-03T16:15:50.149Z,1.70
2017-12-03T16:18:17.702Z,1.70
2017-12-03T16:20:46.015Z,1.70
2017-12-03T16:23:13.574Z,1.70
2017-12-03T16:25:41.137Z,1.80
2017-12-03T16:28:08.712Z,1.80
2017-12-03T16:30:36.253Z,1.80
2017-12-03T16:33:03.781Z,1.80
2017-12-03T16:35:32.098Z,1.80
2017-12-03T16:37:59.619Z,1.90
2017-12-03T16:40:27.960Z,1.90
2017-12-03T16:42:55.489Z,1.80
2017-12-03T16:45:23.017Z,1.90
2017-12-03T16:47:51.353Z,1.90
2017-12-03T16:50:18.901Z,1.90
2017-12-03T16:52:46.465Z,1.90
2017-12-03T16:55:14.007Z,1.90
2017-12-03T16:57:41.569Z,1.90
2017-12-03T17:00:09.100Z,1.90
2017-12-03T17:02:37.415Z,1.90
2017-12-03T17:05:05.091Z,1.90
2017-12-03T17:07:32.763Z,1.90
2017-12-03T17:10:00.748Z,1.90
2017-12-03T17:12:28.369Z,1.90
2017-12-03T17:14:55.915Z,1.90
2017-12-03T17:17:24.254Z,1.90
2017-12-03T17:19:51.796Z,1.90
2017-12-03T17:22:19.387Z,2.00
2017-12-03T17:24:46.949Z,2.00
2017-12-03T17:27:14.550Z,2.00
2017-12-03T17:29:43.055Z,2.00
2017-12-03T17:32:10.695Z,2.00
2017-12-03T17:34:38.268Z,2.00
2017-12-03T17:37:05.981Z,2.10
2017-12-03T17:39:33.537Z,2.10
2017-12-03T17:42:01.303Z,2.10
2017-12-03T17:44:28.861Z,2.10
2017-12-03T17:46:57.432Z,2.10
2017-12-03T17:49:26.088Z,2.20
2017-12-03T17:51:55.463Z,2.10
2017-12-03T17:54:23.187Z,2.10
2017-12-03T17:56:50.750Z,2.10
2017-12-03T17:59:18.281Z,2.20
2017-12-03T18:01:46.582Z,2.20
2017-12-03T18:04:14.151Z,2.20
2017-12-03T18:06:41.691Z,2.20
2017-12-03T18:09:09.332Z,2.20
2017-12-03T18:11:37.693Z,2.20
2017-12-03T18:14:05.212Z,2.20
2017-12-03T18:16:32.766Z,2.20
2017-12-03T18:19:00.305Z,2.20
2017-12-03T18:21:28.633Z,2.20
2017-12-03T18:23:56.185Z,2.20
2017-12-03T18:26:23.721Z,2.20
2017-12-03T18:28:51.268Z,2.20
2017-12-03T18:31:19.602Z,2.30
2017-12-03T18:33:47.158Z,2.30
2017-12-03T18:36:14.695Z,2.30
2017-12-03T18:38:42.281Z,2.30
2017-12-03T18:41:09.843Z,2.30
2017-12-03T18:43:37.391Z,2.40
2017-12-03T18:46:04.965Z,2.40
2017-12-03T18:48:32.501Z,2.40
2017-12-03T18:51:00.026Z,2.40
2017-12-03T18:53:28.413Z,2.40
2017-12-03T18:55:55.923Z,2.40
2017-12-03T18:58:23.506Z,2.40
2017-12-03T19:00:51.049Z,2.40
2017-12-03T19:03:18.592Z,2.40
2017-12-03T19:05:46.164Z,2.50
2017-12-03T19:08:13.688Z,2.50
2017-12-03T19:10:42.023Z,2.50
2017-12-03T19:13:09.571Z,2.50
2017-12-03T19:15:37.136Z,2.60
2017-12-03T19:18:04.685Z,2.50
2017-12-03T19:20:32.221Z,2.50
2017-12-03T19:23:00.544Z,2.60
2017-12-03T19:25:28.072Z,2.50
2017-12-03T19:27:55.627Z,2.50
2017-12-03T19:30:23.177Z,2.60
2017-12-03T19:32:51.488Z,2.60
2017-12-03T19:35:19.059Z,2.60
2017-12-03T19:37:46.597Z,2.60
2017-12-03T19:40:14.149Z,2.60
2017-12-03T19:42:42.465Z,2.60
2017-12-03T19:45:10.016Z,2.60
2017-12-03T19:47:37.571Z,2.70
2017-12-03T19:50:05.093Z,2.60
2017-12-03T19:52:33.386Z,2.70
2017-12-03T19:55:01.723Z,2.70
2017-12-03T19:57:29.258Z,2.70
2017-12-03T19:59:56.835Z,2.70
2017-12-03T20:02:24.387Z,2.70
2017-12-03T20:04:51.943Z,2.80
2017-12-03T20:07:19.509Z,2.80
2017-12-03T20:09:47.029Z,2.70
2017-12-03T20:12:15.351Z,2.80
2017-12-03T20:14:42.912Z,2.80
2017-12-03T20:17:10.453Z,2.80
2017-12-03T20:19:38.003Z,2.80
2017-12-03T20:22:06.298Z,2.80
2017-12-03T20:24:33.875Z,2.80
2017-12-03T20:27:01.421Z,2.80
2017-12-03T20:29:28.949Z,2.80
2017-12-03T20:31:57.297Z,2.80
2017-12-03T20:34:24.847Z,2.80
2017-12-03T20:36:52.435Z,2.80
2017-12-03T20:39:19.981Z,2.80
2017-12-03T20:41:47.524Z,2.80
2017-12-03T20:44:15.091Z,2.90
2017-12-03T20:46:42.630Z,2.90
2017-12-03T20:49:10.307Z,2.90
2017-12-03T20:51:37.859Z,2.80
2017-12-03T20:54:05.401Z,2.80
2017-12-03T20:56:33.761Z,2.80
2017-12-03T20:59:01.288Z,2.80
2017-12-03T21:01:28.849Z,2.90
2017-12-03T21:03:56.380Z,2.90
2017-12-03T21:06:23.933Z,2.90
2017-12-03T21:08:51.490Z,2.90
2017-12-03T21:11:19.822Z,2.90
2017-12-03T21:13:47.364Z,2.90
2017-12-03T21:16:14.924Z,3.00
2017-12-03T21:18:42.578Z,3.00
2017-12-03T21:21:10.164Z,3.00
2017-12-03T21:23:37.736Z,3.00
2017-12-03T21:26:05.266Z,2.90
2017-12-03T21:28:32.817Z,2.90
2017-12-03T21:31:00.368Z,3.00
2017-12-03T21:33:27.917Z,3.00
2017-12-03T21:35:56.265Z,3.00
2017-12-03T21:38:23.812Z,3.00
2017-12-03T21:40:51.377Z,3.00
2017-12-03T21:43:18.938Z,3.00
2017-12-03T21:45:46.480Z,3.00
2017-12-03T21:48:14.042Z,3.10
2017-12-03T21:50:41.589Z,3.10
2017-12-03T21:53:09.148Z,3.10
2017-12-03T21:55:36.710Z,3.10
2017-12-03T21:58:04.241Z,3.10
2017-12-03T22:00:32.564Z,3.10
2017-12-03T22:03:00.085Z,3.10
2017-12-03T22:05:28.381Z,3.10
2017-12-03T22:07:56.691Z,3.10
2017-12-03T22:10:24.228Z,3.10
2017-12-03T22:12:51.793Z,3.10
2017-12-03T22:15:19.355Z,3.20
2017-12-03T22:17:46.907Z,3.20
2017-12-03T22:20:15.237Z,3.20
2017-12-03T22:22:42.765Z,3.20
2017-12-03T22:25:10.392Z,3.20
2017-12-03T22:27:37.903Z,3.20
2017-12-03T22:30:05.434Z,3.30
2017-12-03T22:32:33.001Z,3.30
2017-12-03T22:35:00.534Z,3.20
2017-12-03T22:37:28.860Z,3.30
2017-12-03T22:39:56.426Z,3.20
2017-12-03T22:42:23.957Z,3.20
2017-12-03T22:44:51.501Z,3.30
2017-12-03T22:47:19.796Z,3.30
2017-12-03T22:49:47.364Z,3.30
2017-12-03T22:52:14.922Z,3.30
2017-12-03T22:54:42.472Z,3.30
2017-12-03T22:57:10.808Z,3.30
2017-12-03T22:59:38.356Z,3.30
2017-12-03T23:02:05.928Z,3.30
2017-12-03T23:04:33.457Z,3.30
2017-12-03T23:07:01.007Z,3.30
2017-12-03T23:09:29.325Z,3.30
2017-12-03T23:11:56.868Z,3.30
2017-12-03T23:14:24.448Z,3.30
2017-12-03T23:16:51.983Z,3.40
2017-12-03T23:19:19.530Z,3.40
2017-12-03T23:21:47.859Z,3.40
2017-12-03T23:24:15.396Z,3.40
2017-12-03T23:26:42.965Z,3.40
2017-12-03T23:29:10.495Z,3.40
2017-12-03T23:31:38.808Z,3.40
2017-12-03T23:34:06.367Z,3.40
2017-12-03T23:36:33.925Z,3.40
2017-12-03T23:39:01.495Z,3.40
2017-12-03T23:41:29.018Z,3.40
2017-12-03T23:43:57.309Z,3.40
2017-12-03T23:46:24.875Z,3.40
2017-12-03T23:48:52.415Z,3.50
2017-12-03T23:51:20.741Z,3.50
2017-12-03T23:53:48.283Z,3.40
2017-12-03T23:56:15.828Z,3.50
2017-12-03T23:58:43.391Z,3.50
